Time;durP1;ratioP1;P1;durP2;ratioP2;P2;SDS_P1;SDS_P2;PMS_P1;PMS_P2;Temp;Humidity;BMP_temperature;BMP_pressure;BME280_temperature;BME280_humidity;BME280_pressure;Samples;Min_cycle;Max_cycle;Signal;HPM_P1;HPM_P2
2021/11/01 00:00:29;;;;;;;10.40;7.60;;;;;;;22.87;40.70;95040.31;4987968;28;20030;-66
2021/11/01 00:02:55;;;;;;;10.60;7.70;;;;;;;22.84;40.67;95042.09;4987807;28;20093;-66
2021/11/01 00:05:22;;;;;;;10.75;7.63;;;;;;;22.81;40.42;95037.66;4970662;28;20061;-66
2021/11/01 00:07:48;;;;;;;10.35;7.85;;;;;;;22.81;40.54;95036.88;4988124;28;20417;-66
2021/11/01 00:10:13;;;;;;;9.95;7.57;;;;;;;22.79;40.81;95033.94;4987740;28;20034;-65
2021/11/01 00:12:39;;;;;;;9.43;7.30;;;;;;;22.78;40.83;95043.34;4987656;28;20080;-66
2021/11/01 00:15:05;;;;;;;9.50;7.20;;;;;;;22.76;40.71;95040.41;4986157;28;20027;-66
2021/11/01 00:17:31;;;;;;;9.65;7.15;;;;;;;22.74;40.75;95037.44;4987470;28;20029;-66
2021/11/01 00:19:56;;;;;;;10.82;7.65;;;;;;;22.73;40.75;95038.69;4987690;28;20030;-66
2021/11/01 00:22:22;;;;;;;9.05;7.30;;;;;;;22.71;40.44;95038.47;4986458;28;20033;-66
2021/11/01 00:24:48;;;;;;;10.25;7.72;;;;;;;22.71;40.72;95039.19;4987345;28;20034;-66
2021/11/01 00:27:15;;;;;;;9.80;7.30;;;;;;;22.69;40.59;95030.03;4987336;28;20033;-66
2021/11/01 00:29:41;;;;;;;10.20;7.57;;;;;;;22.67;40.89;95033.25;4986027;28;20037;-66
2021/11/01 00:32:06;;;;;;;10.25;7.75;;;;;;;22.66;40.69;95033.75;4987202;28;20030;-66
2021/11/01 00:34:32;;;;;;;10.23;7.35;;;;;;;22.65;40.73;95035.75;4987332;28;20563;-66
2021/11/01 00:36:57;;;;;;;9.75;7.55;;;;;;;22.65;40.62;95026.84;4987218;28;20026;-66
2021/11/01 00:39:23;;;;;;;10.65;7.70;;;;;;;22.63;40.85;95032.03;4986800;28;20432;-66
2021/11/01 00:41:49;;;;;;;9.73;7.38;;;;;;;22.64;40.95;95017.19;4987178;28;20026;-66
2021/11/01 00:44:14;;;;;;;9.68;7.70;;;;;;;22.62;41.01;95025.16;4985855;28;20036;-66
2021/11/01 00:46:40;;;;;;;9.98;7.53;;;;;;;22.62;40.95;95019.69;4987018;28;20038;-66
2021/11/01 00:49:06;;;;;;;9.85;7.45;;;;;;;22.59;40.81;95016.00;4986875;28;20038;-66
2021/11/01 00:51:36;;;;;;;11.55;7.60;;;;;;;22.59;40.90;95015.25;4969278;28;20572;-66
2021/11/01 00:54:02;;;;;;;9.80;7.35;;;;;;;22.58;40.91;95011.78;4986915;28;20413;-66
2021/11/01 00:56:27;;;;;;;11.02;7.93;;;;;;;22.57;41.08;95012.28;4986709;28;20030;-66
2021/11/01 00:58:53;;;;;;;10.85;8.50;;;;;;;22.55;40.79;95006.63;4969655;28;20026;-66
2021/11/01 01:03:54;;;;;;;8.85;7.28;;;;;;;22.53;40.94;94996.22;4789899;26;20061;-64
2021/11/01 01:06:20;;;;;;;10.05;7.57;;;;;;;22.53;40.80;95000.94;5006640;28;20034;-64
2021/11/01 01:08:45;;;;;;;10.77;7.72;;;;;;;22.51;41.05;94997.97;5006639;28;20022;-64
2021/11/01 01:11:10;;;;;;;9.90;7.47;;;;;;;22.50;41.29;94991.06;5020816;28;20026;-63
2021/11/01 01:13:37;;;;;;;9.38;7.38;;;;;;;22.49;40.97;94989.59;5006753;28;20026;-64
2021/11/01 01:16:22;;;;;;;10.85;7.63;;;;;;;22.48;41.03;94982.66;5006740;28;20033;-64
2021/11/01 01:18:49;;;;;;;9.57;7.63;;;;;;;22.48;40.85;94982.66;5006893;28;20026;-64
2021/11/01 01:24:00;;;;;;;8.13;6.75;;;;;;;22.45;40.92;94978.22;5005417;28;20113;-63
2021/11/01 01:26:25;;;;;;;11.07;7.80;;;;;;;22.45;41.02;94972.78;5006194;28;20030;-64
2021/11/01 01:28:51;;;;;;;9.52;8.00;;;;;;;22.43;40.88;94972.53;5004683;28;20040;-63
2021/11/01 01:31:16;;;;;;;10.10;8.15;;;;;;;22.42;40.95;94979.25;5006438;28;20038;-64
2021/11/01 01:33:42;;;;;;;10.02;7.47;;;;;;;22.41;40.90;94972.31;5005819;28;20026;-64
2021/11/01 01:36:08;;;;;;;10.05;8.02;;;;;;;22.40;40.93;94959.22;5006196;28;20113;-64
2021/11/01 01:38:33;;;;;;;9.82;7.70;;;;;;;22.40;41.18;94959.94;5006045;28;20036;-64
2021/11/01 01:40:59;;;;;;;9.10;7.25;;;;;;;22.39;40.97;94953.06;5006120;28;20026;-64
2021/11/01 01:43:24;;;;;;;10.40;7.90;;;;;;;22.39;41.00;94953.06;5006220;28;20112;-63
2021/11/01 01:45:50;;;;;;;10.25;7.75;;;;;;;22.38;40.84;94948.84;5004665;28;20502;-64
2021/11/01 01:48:15;;;;;;;10.85;7.68;;;;;;;22.37;40.87;94950.06;5006074;28;20029;-64
2021/11/01 01:50:41;;;;;;;10.27;7.38;;;;;;;22.37;40.89;94941.91;5006041;28;20029;-64
2021/11/01 01:53:07;;;;;;;9.88;7.57;;;;;;;22.36;41.21;94947.84;5005639;28;20046;-64
2021/11/01 01:55:33;;;;;;;10.80;7.70;;;;;;;22.34;41.17;94945.63;5005790;28;20029;-63
2021/11/01 01:57:59;;;;;;;11.48;7.97;;;;;;;22.34;41.03;94937.47;5005598;28;20026;-63
2021/11/01 02:03:05;;;;;;;10.93;8.00;;;;;;;22.33;41.14;94938.75;4997836;28;20145;-64
2021/11/01 02:05:37;;;;;;;10.18;7.55;;;;;;;22.32;41.28;94931.81;4986021;28;20026;-64
2021/11/01 02:08:05;;;;;;;9.73;7.68;;;;;;;22.31;41.08;94935.03;4968561;28;20559;-63
2021/11/01 02:10:41;;;;;;;10.55;7.78;;;;;;;22.31;41.25;94941.22;5000019;28;20041;-64
2021/11/01 02:13:12;;;;;;;9.65;7.35;;;;;;;22.30;41.13;94934.31;4965182;28;20285;-64
2021/11/01 02:15:41;;;;;;;10.10;7.90;;;;;;;22.31;41.27;94937.75;4949894;28;20525;-64
2021/11/01 02:18:07;;;;;;;10.65;7.65;;;;;;;22.30;41.33;94939.00;4949613;28;20034;-63
2021/11/01 02:20:35;;;;;;;9.25;7.18;;;;;;;22.28;41.26;94936.78;4956763;28;20102;-64
2021/11/01 02:23:15;;;;;;;9.65;7.47;;;;;;;22.28;41.23;94936.03;4971040;28;20560;-64
2021/11/01 02:25:45;;;;;;;10.45;8.07;;;;;;;22.26;41.19;94933.81;4967896;28;20023;-63
2021/11/01 02:28:13;;;;;;;9.13;7.07;;;;;;;22.27;41.17;94935.31;4950151;28;20041;-64
2021/11/01 02:30:39;;;;;;;9.75;6.93;;;;;;;22.26;41.15;94944.72;4966543;28;20118;-64
2021/11/01 02:33:05;;;;;;;9.02;6.95;;;;;;;22.25;41.22;94937.78;4966783;28;20035;-63
2021/11/01 02:35:31;;;;;;;10.65;7.78;;;;;;;22.24;41.21;94947.19;4966342;28;20055;-64
2021/11/01 02:37:58;;;;;;;9.48;7.25;;;;;;;22.23;41.29;94940.28;4966390;28;20058;-63
2021/11/01 02:40:28;;;;;;;10.45;8.05;;;;;;;22.24;41.21;94946.44;4966144;28;20061;-63
2021/11/01 02:42:54;;;;;;;7.75;6.80;;;;;;;22.21;41.19;94937.31;4967600;28;20480;-64
2021/11/01 02:45:20;;;;;;;10.52;7.97;;;;;;;22.20;41.28;94941.25;4951961;28;20018;-64
2021/11/01 02:47:45;;;;;;;10.25;7.40;;;;;;;22.19;41.27;94944.47;4966694;28;20023;-64
2021/11/01 02:50:12;;;;;;;8.77;7.32;;;;;;;22.19;41.37;94934.31;4985035;28;20420;-64
2021/11/01 02:52:38;;;;;;;10.15;7.38;;;;;;;22.18;41.32;94941.03;4985416;28;20034;-63
2021/11/01 02:55:05;;;;;;;8.55;7.20;;;;;;;22.17;41.51;94936.81;4983821;28;20429;-63
2021/11/01 02:57:31;;;;;;;9.98;7.60;;;;;;;22.17;41.14;94934.09;4984929;28;20034;-64
2021/11/01 02:59:56;;;;;;;9.88;7.50;;;;;;;22.17;41.38;94936.81;4984151;28;20033;-64
2021/11/01 03:02:22;;;;;;;10.57;7.35;;;;;;;22.15;41.27;94931.16;4969398;28;20566;-64
2021/11/01 03:04:47;;;;;;;9.60;7.22;;;;;;;22.16;41.22;94934.59;5005140;28;20038;-64
2021/11/01 03:07:14;;;;;;;9.05;7.43;;;;;;;22.16;41.45;94929.88;5004633;28;20575;-63
2021/11/01 03:09:40;;;;;;;9.55;7.18;;;;;;;22.15;41.20;94928.44;5004716;28;20462;-63
2021/11/01 03:12:09;;;;;;;9.35;7.57;;;;;;;22.12;41.39;94929.44;4987034;28;20036;-64
2021/11/01 03:14:45;;;;;;;9.20;7.03;;;;;;;22.14;41.35;94932.38;4987056;28;20037;-64
2021/11/01 03:17:15;;;;;;;9.60;7.38;;;;;;;22.14;41.22;94932.38;5004405;28;20034;-64
2021/11/01 03:19:42;;;;;;;9.88;7.40;;;;;;;22.11;41.27;94933.38;4987004;28;20017;-64
2021/11/01 03:22:08;;;;;;;10.55;7.35;;;;;;;22.09;41.46;94925.00;4987032;28;20060;-64
2021/11/01 03:24:34;;;;;;;9.52;7.03;;;;;;;22.08;41.35;94920.78;4986922;28;20018;-64
2021/11/01 03:27:03;;;;;;;9.10;7.43;;;;;;;22.11;41.10;94914.34;4986787;28;20531;-63
2021/11/01 03:29:29;;;;;;;9.60;7.18;;;;;;;22.10;41.43;94920.28;4986900;28;20419;-64
2021/11/01 03:31:54;;;;;;;9.77;7.28;;;;;;;22.09;41.03;94925.00;4986782;28;20018;-63
2021/11/01 03:34:20;;;;;;;10.93;7.22;;;;;;;22.08;41.41;94918.06;5006489;28;20026;-64
2021/11/01 03:36:45;;;;;;;10.18;7.20;;;;;;;22.08;41.14;94926.22;4990807;28;20026;-64
2021/11/01 03:39:13;;;;;;;9.18;6.90;;;;;;;22.07;41.35;94916.59;4990468;28;20025;-64
2021/11/01 03:41:40;;;;;;;7.88;6.68;;;;;;;22.07;41.13;94915.84;4974693;28;20026;-63
2021/11/01 03:44:07;;;;;;;9.10;6.82;;;;;;;22.07;41.49;94913.88;4990722;28;20411;-64
2021/11/01 03:46:42;;;;;;;9.93;7.13;;;;;;;22.07;41.33;94910.41;4990410;28;20554;-64
2021/11/01 03:49:09;;;;;;;9.15;7.05;;;;;;;22.05;41.38;94916.34;5008018;28;20916;-64
2021/11/01 03:51:43;;;;;;;9.43;6.90;;;;;;;22.06;41.15;94909.69;5008128;28;20548;-64
2021/11/01 03:54:10;;;;;;;9.68;6.85;;;;;;;22.05;41.29;94910.91;5006898;28;20113;-63
2021/11/01 03:56:36;;;;;;;8.40;6.88;;;;;;;22.05;41.26;94907.47;5008211;28;20037;-64
2021/11/01 03:59:01;;;;;;;9.07;6.45;;;;;;;22.03;41.32;94907.97;4990177;28;20376;-63
2021/11/01 04:01:27;;;;;;;9.10;7.28;;;;;;;22.03;41.39;94907.97;5006669;28;20105;-64
2021/11/01 04:03:53;;;;;;;9.68;6.85;;;;;;;22.03;41.29;94910.69;5007736;28;20068;-64
2021/11/01 04:06:21;;;;;;;9.68;6.97;;;;;;;22.02;41.43;94901.03;5008110;28;20692;-64
2021/11/01 04:08:47;;;;;;;9.63;6.63;;;;;;;22.01;41.30;94902.28;5007782;28;20108;-64
2021/11/01 04:11:12;;;;;;;8.70;6.55;;;;;;;22.01;41.49;94913.16;5007437;28;20483;-64
2021/11/01 04:13:38;;;;;;;8.63;6.72;;;;;;;21.99;41.26;94904.78;5007837;28;20554;-64
2021/11/01 04:16:12;;;;;;;8.82;7.05;;;;;;;22.00;41.29;94900.81;5006048;28;20034;-64
2021/11/01 04:19:03;;;;;;;8.45;6.43;;;;;;;21.99;41.44;94899.34;5007533;28;20087;-63
2021/11/01 04:21:23;;;;;;;9.98;7.43;;;;;;;22.00;41.19;94894.63;5006512;28;20045;-64
2021/11/01 04:23:49;;;;;;;9.05;6.80;;;;;;;21.98;41.36;94892.41;5007728;28;20042;-63
2021/11/01 04:26:17;;;;;;;9.82;7.35;;;;;;;21.97;41.17;94884.75;5007650;28;20631;-63
2021/11/01 04:28:42;;;;;;;9.63;7.65;;;;;;;21.98;41.26;94880.81;5005848;28;20427;-64
2021/11/01 04:31:20;;;;;;;9.13;7.55;;;;;;;21.97;41.30;94888.22;5007450;28;20034;-64
2021/11/01 04:33:46;;;;;;;8.95;6.95;;;;;;;21.95;41.38;94887.97;5006838;28;20120;-63
2021/11/01 04:36:12;;;;;;;9.55;7.18;;;;;;;21.96;41.39;94881.31;5006852;28;20030;-63
2021/11/01 04:54:30;;;;;;;9.05;6.20;;;;;;;21.92;41.22;94884.81;5006741;28;20139;-63
2021/11/01 04:56:55;;;;;;;8.35;6.53;;;;;;;21.92;41.35;94876.66;5006639;28;20038;-63
2021/11/01 04:59:22;;;;;;;9.73;6.63;;;;;;;21.92;41.24;94887.53;5006821;28;20037;-63
2021/11/01 05:01:52;;;;;;;8.57;6.93;;;;;;;21.91;41.37;94875.16;5005477;28;20813;-64
2021/11/01 05:04:21;;;;;;;;;;;;;;;21.89;41.46;94877.66;5007130;28;20053;-64
2021/11/01 05:06:52;;;;;;;7.82;6.40;;;;;;;21.89;41.33;94888.53;5006936;28;19917;-64
2021/11/01 05:14:19;;;;;;;8.95;6.40;;;;;;;21.88;41.44;94881.59;5006897;28;20061;-63
2021/11/01 05:19:37;;;;;;;9.23;7.00;;;;;;;21.88;41.36;94881.59;4987063;28;20049;-63
2021/11/01 05:22:26;;;;;;;9.40;6.13;;;;;;;21.86;41.44;94887.53;5006363;28;20022;-63
2021/11/01 05:25:00;;;;;;;8.60;7.00;;;;;;;21.87;41.30;94886.31;5006066;28;20030;-63
2021/11/01 05:27:44;;;;;;;8.50;6.60;;;;;;;21.87;41.24;94885.53;5006512;28;20033;-63
2021/11/01 05:30:15;;;;;;;8.07;6.82;;;;;;;21.86;41.45;94890.25;4991497;28;20262;-64
2021/11/01 05:32:43;;;;;;;8.93;6.97;;;;;;;21.88;41.41;94887.75;4989212;28;20045;-64
2021/11/01 05:35:09;;;;;;;8.77;6.55;;;;;;;21.87;41.38;94891.00;5006129;28;20094;-64
2021/11/01 05:37:35;;;;;;;7.97;6.68;;;;;;;21.86;41.41;94881.38;5006046;28;20030;-63
2021/11/01 05:40:01;;;;;;;8.98;6.85;;;;;;;21.90;41.42;94889.97;5005751;28;20037;-64
2021/11/01 05:42:27;;;;;;;7.55;6.07;;;;;;;21.92;41.45;94883.53;5005903;28;20029;-63
2021/11/01 05:44:52;;;;;;;9.45;6.57;;;;;;;22.00;41.63;94895.38;4998291;28;20038;-63
2021/11/01 05:47:18;;;;;;;9.95;7.07;;;;;;;22.03;41.72;94902.53;5005254;28;20044;-62
2021/11/01 05:49:43;;;;;;;8.88;6.57;;;;;;;22.07;41.59;94900.28;5005226;28;20029;-63
2021/11/01 05:52:18;;;;;;;9.90;6.45;;;;;;;22.12;41.68;94907.69;5004934;28;20482;-63
2021/11/01 05:54:44;;;;;;;8.00;6.25;;;;;;;22.17;41.85;94909.63;5004382;28;20025;-61
2021/11/01 05:57:24;;;;;;;8.00;6.18;;;;;;;22.20;41.68;94903.16;5004149;28;20022;-61
2021/11/01 06:02:42;;;;;;;8.13;5.75;;;;;;;22.34;41.59;94907.56;5004369;28;20099;-62
2021/11/01 06:07:45;;;;;;;8.55;6.55;;;;;;;22.49;41.01;94908.69;4992128;28;20539;-63
2021/11/01 06:15:27;;;;;;;7.78;5.88;;;;;;;22.88;40.26;94908.38;5005372;28;20080;-66
2021/11/01 06:17:55;;;;;;;6.38;5.20;;;;;;;22.95;40.36;94912.06;5004717;28;20052;-61
2021/11/01 06:20:20;;;;;;;8.25;6.18;;;;;;;23.07;40.35;94912.69;5003171;28;20037;-62
2021/11/01 06:22:46;;;;;;;9.75;6.20;;;;;;;23.23;40.45;94909.81;5003955;28;20516;-60
2021/11/01 06:25:15;;;;;;;7.95;5.85;;;;;;;23.27;40.70;94910.25;5004927;28;20477;-62
2021/11/01 06:27:41;;;;;;;8.48;5.85;;;;;;;23.39;41.72;94917.06;5004086;28;20406;-63
2021/11/01 06:30:29;;;;;;;7.68;5.75;;;;;;;23.55;41.20;94907.97;5003510;28;20487;-62
2021/11/01 06:41:15;;;;;;;6.68;5.40;;;;;;;24.04;42.71;94894.50;5004723;28;20092;-64
2021/11/01 06:44:03;;;;;;;6.93;5.65;;;;;;;24.10;41.33;94897.91;4993010;28;20482;-61
2021/11/01 06:57:29;;;;;;;7.82;5.70;;;;;;;24.49;39.91;94895.38;5001444;28;20037;-61
2021/11/01 07:18:58;;;;;;;6.85;5.57;;;;;;;24.85;37.69;94884.34;5000705;28;20030;-62
2021/11/01 08:21:03;;;;;;;8.98;6.22;;;;;;;24.87;38.80;94857.28;4989235;28;20455;-63
2021/11/01 08:26:34;;;;;;;10.20;6.53;;;;;;;24.78;38.63;94850.72;4998492;28;20051;-63
2021/11/01 08:42:34;;;;;;;8.43;6.50;;;;;;;24.46;39.20;94842.56;5006549;28;20139;-63
2021/11/01 09:25:02;;;;;;;8.63;6.63;;;;;;;24.29;39.04;94811.31;5006107;28;20121;-63
2021/11/01 09:27:30;;;;;;;9.65;6.35;;;;;;;24.29;39.29;94805.84;4977556;28;20064;-63
2021/11/01 09:35:40;;;;;;;8.95;6.28;;;;;;;24.28;39.10;94804.38;4988746;28;20484;-63
2021/11/01 09:41:01;;;;;;;11.18;6.40;;;;;;;24.29;38.94;94784.00;4996254;28;20045;-63
2021/11/01 09:43:27;;;;;;;9.88;6.60;;;;;;;24.25;38.97;94783.56;4990612;28;20034;-63
2021/11/01 09:45:56;;;;;;;9.70;7.07;;;;;;;24.27;38.97;94775.59;4988049;28;20080;-63
2021/11/01 09:48:22;;;;;;;8.63;6.85;;;;;;;24.28;39.02;94782.53;5005337;28;20687;-63
2021/11/01 09:50:49;;;;;;;9.57;6.35;;;;;;;24.28;39.05;94763.44;4974820;28;20033;-66
2021/11/01 09:53:23;;;;;;;8.52;6.63;;;;;;;24.29;39.08;94767.63;5006836;28;20022;-70
2021/11/01 09:55:50;;;;;;;10.55;6.70;;;;;;;24.29;39.44;94762.19;5007179;28;20574;-68
2021/11/01 10:01:02;;;;;;;9.57;7.22;;;;;;;24.34;38.84;94758.66;5004733;28;20154;-63
2021/11/01 10:03:47;;;;;;;11.32;6.78;;;;;;;24.41;39.54;94760.78;5005004;28;20132;-62
2021/11/01 10:06:20;;;;;;;9.50;6.40;;;;;;;24.40;39.40;94745.66;4986755;28;20050;-61
2021/11/01 10:09:12;;;;;;;9.68;6.50;;;;;;;24.44;39.53;94746.09;4986115;28;20045;-61
2021/11/01 10:11:39;;;;;;;10.23;6.95;;;;;;;24.45;39.78;94747.53;4987837;28;20037;-60
2021/11/01 10:14:07;;;;;;;10.23;6.70;;;;;;;24.49;39.76;94737.06;4978689;28;20031;-63
2021/11/01 10:19:27;;;;;;;9.13;6.32;;;;;;;24.67;40.11;94736.97;5004647;28;20037;-63
2021/11/01 10:21:55;;;;;;;10.00;7.43;;;;;;;24.77;40.23;94727.09;5004733;28;20048;-64
2021/11/01 10:24:41;;;;;;;10.00;6.97;;;;;;;24.86;40.01;94721.94;5003933;28;20076;-63
2021/11/01 10:27:08;;;;;;;10.60;6.82;;;;;;;24.98;39.59;94717.72;5004963;28;20502;-64
2021/11/01 10:29:55;;;;;;;9.27;6.85;;;;;;;25.12;39.34;94719.22;5003811;28;20476;-64
2021/11/01 10:32:32;;;;;;;10.13;7.03;;;;;;;25.27;39.07;94710.47;5004295;28;20120;-61
2021/11/01 10:35:31;;;;;;;8.40;6.50;;;;;;;25.43;38.72;94707.41;5004524;28;20041;-64
2021/11/01 10:38:05;;;;;;;9.67;6.87;;;;;;;25.53;38.70;94705.66;4944930;28;20038;-64
2021/11/01 10:40:32;;;;;;;8.10;6.43;;;;;;;25.63;38.53;94693.03;5003775;28;20276;-61
2021/11/01 10:43:18;;;;;;;10.32;7.15;;;;;;;25.73;38.23;94696.81;5003651;28;20033;-61
2021/11/01 11:13:43;;;;;;;8.80;6.60;;;;;;;26.58;36.77;94647.91;4982262;28;20077;-65
2021/11/01 11:16:11;;;;;;;9.40;7.25;;;;;;;26.64;36.88;94662.19;4983934;28;20165;-65
2021/11/01 11:47:37;;;;;;;10.43;6.78;;;;;;;27.43;35.97;94620.50;4981101;28;20471;-63
2021/11/01 11:50:16;;;;;;;8.38;6.90;;;;;;;27.52;35.84;94606.25;4967152;28;20026;-62
2021/11/01 11:52:42;;;;;;;9.25;6.80;;;;;;;27.54;35.48;94609.22;4983516;28;20583;-62
2021/11/01 11:55:22;;;;;;;9.95;6.97;;;;;;;27.59;35.81;94605.56;4964727;28;20030;-64
2021/11/01 11:57:54;;;;;;;;;;;;;;;27.66;35.45;94599.34;4988038;28;20045;-64
2021/11/01 12:00:20;;;;;;;8.75;7.05;;;;;;;27.64;34.77;94601.88;4988030;28;19917;-64
2021/11/01 12:02:47;;;;;;;8.57;6.72;;;;;;;27.61;34.88;94597.50;4984451;28;20058;-64
2021/11/01 12:05:30;;;;;;;8.77;6.72;;;;;;;27.59;34.89;94594.56;4968078;28;20023;-64
2021/11/01 12:08:02;;;;;;;8.57;6.70;;;;;;;27.50;35.19;94592.38;4986639;28;20023;-64
2021/11/01 12:18:54;;;;;;;10.52;6.72;;;;;;;27.19;35.38;94574.38;4987364;28;20096;-63
2021/11/01 12:21:20;;;;;;;9.77;6.95;;;;;;;27.13;35.72;94575.81;4987619;28;20030;-64
2021/11/01 12:23:45;;;;;;;10.65;7.15;;;;;;;27.06;35.52;94582.72;4987717;28;20030;-64
2021/11/01 12:26:12;;;;;;;10.13;7.53;;;;;;;26.97;35.78;94569.53;4986816;28;20093;-64
2021/11/01 12:28:38;;;;;;;10.00;7.03;;;;;;;26.96;35.66;94576.28;4969684;28;20477;-63
2021/11/01 12:31:04;;;;;;;9.18;7.15;;;;;;;26.88;36.20;94572.78;4970290;28;20037;-63
2021/11/01 12:33:31;;;;;;;7.70;6.45;;;;;;;26.86;35.97;94575.34;4986089;28;20137;-64
2021/11/01 12:36:02;;;;;;;9.13;6.60;;;;;;;26.80;36.04;94563.81;4953403;28;20034;-64
2021/11/01 12:38:38;;;;;;;8.88;6.85;;;;;;;26.77;36.13;94556.66;4987159;28;20057;-64
2021/11/01 12:41:16;;;;;;;9.98;6.90;;;;;;;26.73;36.26;94552.09;4986226;28;20037;-63
2021/11/01 12:47:13;;;;;;;8.90;6.82;;;;;;;26.66;36.53;94556.25;4985945;28;20571;-64
2021/11/01 12:57:31;;;;;;;9.27;6.68;;;;;;;26.38;36.85;94547.34;4978389;28;20081;-64
2021/11/01 12:59:57;;;;;;;8.25;6.80;;;;;;;26.39;36.97;94548.81;4986817;28;20124;-64
2021/11/01 13:02:36;;;;;;;9.73;6.88;;;;;;;26.35;37.06;94538.22;4986653;28;20662;-64
2021/11/01 13:05:24;;;;;;;9.70;7.13;;;;;;;26.32;37.14;94538.56;4986585;28;20540;-65
2021/11/01 13:18:37;;;;;;;8.40;6.63;;;;;;;26.22;37.24;94529.38;4986784;28;20117;-65
2021/11/01 13:21:12;;;;;;;9.27;7.32;;;;;;;26.22;37.34;94526.63;4981670;28;20026;-65
2021/11/01 13:23:42;;;;;;;7.78;6.43;;;;;;;26.24;37.17;94526.81;4985841;28;20063;-65
2021/11/01 13:26:24;;;;;;;9.35;6.32;;;;;;;26.26;37.28;94529.72;4969491;28;20027;-65
2021/11/01 13:39:41;;;;;;;9.35;6.30;;;;;;;26.21;37.38;94521.69;4968854;28;20622;-64
2021/11/01 13:42:11;;;;;;;9.18;6.65;;;;;;;26.16;37.41;94515.09;4968689;28;20089;-64
2021/11/01 13:44:36;;;;;;;8.27;6.20;;;;;;;26.21;37.56;94524.44;4968411;28;20037;-64
2021/11/01 13:47:03;;;;;;;8.18;6.88;;;;;;;26.14;37.45;94512.16;4981946;28;20026;-65
2021/11/01 13:49:30;;;;;;;8.73;6.75;;;;;;;26.10;37.58;94521.97;4986041;28;20037;-65
2021/11/01 13:52:10;;;;;;;7.45;6.20;;;;;;;26.08;37.47;94519.78;4972268;28;20037;-62
2021/11/01 13:54:49;;;;;;;24.95;12.25;;;;;;;26.10;34.35;94514.50;4985724;28;20074;-62
2021/11/01 13:57:16;;;;;;;16.52;10.15;;;;;;;26.00;34.25;94513.53;4985122;28;20030;-64
2021/11/01 14:13:15;;;;;;;12.70;6.75;;;;;;;25.81;37.83;94517.78;4996330;28;20036;-63
2021/11/01 14:29:25;;;;;;;11.88;6.75;;;;;;;25.55;38.25;94512.47;4989611;28;20069;-64
2021/11/01 14:57:05;;;;;;;10.30;6.88;;;;;;;24.95;39.16;94505.69;4977098;28;20072;-64
2021/11/01 15:15:07;;;;;;;11.65;6.85;;;;;;;24.59;39.82;94506.06;4985107;28;20595;-63
2021/11/01 15:23:14;;;;;;;8.23;6.47;;;;;;;24.41;39.66;94496.75;4984716;28;20554;-63
2021/11/01 15:33:56;;;;;;;9.10;6.82;;;;;;;24.25;39.93;94494.31;4987555;28;20066;-63
2021/11/01 16:20:10;;;;;;;9.18;6.68;;;;;;;23.80;40.95;94495.00;4974824;28;20054;-61
2021/11/01 16:22:36;;;;;;;8.52;6.72;;;;;;;23.79;40.51;94491.53;5003089;28;20026;-61
2021/11/01 16:25:02;;;;;;;9.90;6.47;;;;;;;23.76;40.96;94494.56;4988217;28;20042;-62
2021/11/01 16:27:28;;;;;;;9.02;7.00;;;;;;;23.74;41.22;94488.91;4987680;28;20034;-61
2021/11/01 16:30:10;;;;;;;8.43;6.80;;;;;;;23.74;40.86;94497.09;4987955;28;20022;-61
2021/11/01 16:32:41;;;;;;;9.63;6.85;;;;;;;23.72;41.03;94489.44;5001143;28;20049;-61
2021/11/01 16:35:07;;;;;;;9.73;6.47;;;;;;;23.69;41.01;94492.47;4986101;28;20034;-62
2021/11/01 16:37:37;;;;;;;9.75;7.07;;;;;;;23.70;41.09;94488.47;4986327;28;20061;-61
2021/11/01 16:40:08;;;;;;;9.10;6.88;;;;;;;23.68;40.68;94491.72;5001892;28;20032;-61
2021/11/01 16:42:36;;;;;;;8.82;6.75;;;;;;;23.66;40.67;94488.06;4987758;28;20034;-61
2021/11/01 16:45:36;;;;;;;8.35;6.45;;;;;;;23.63;40.69;94486.34;4987007;28;20027;-61
2021/11/01 16:48:01;;;;;;;9.95;7.38;;;;;;;23.61;40.86;94484.13;4986736;28;20050;-61
2021/11/01 16:50:27;;;;;;;9.32;6.90;;;;;;;23.60;40.99;94495.56;4987168;28;20530;-62
2021/11/01 16:52:52;;;;;;;8.68;6.60;;;;;;;23.60;41.16;94501.00;4972511;28;20103;-62
2021/11/01 16:55:21;;;;;;;9.60;7.00;;;;;;;23.57;40.66;94491.16;5006563;28;20117;-61
2021/11/01 16:57:53;;;;;;;9.35;6.70;;;;;;;23.53;41.12;94493.47;5006517;28;20042;-61
2021/11/01 17:00:32;;;;;;;9.00;6.53;;;;;;;23.52;40.78;94494.72;4989389;28;20046;-61
2021/11/01 17:09:13;;;;;;;9.27;6.97;;;;;;;23.46;40.89;94518.63;5006712;28;20045;-62
2021/11/01 17:22:40;;;;;;;10.13;6.53;;;;;;;23.38;41.78;94523.22;5006599;28;20173;-62
2021/11/01 17:25:11;;;;;;;10.35;6.93;;;;;;;23.38;41.98;94523.22;5005991;28;20021;-61
2021/11/01 17:28:10;;;;;;;11.85;7.15;;;;;;;23.39;42.09;94524.66;5006090;28;20053;-62
2021/11/01 17:31:02;;;;;;;11.50;6.65;;;;;;;23.40;42.27;94531.59;5005000;28;20544;-61
2021/11/01 18:51:32;;;;;;;17.42;10.25;;;;;;;25.72;36.68;94574.97;4975991;28;20148;-61
2021/11/01 18:54:13;;;;;;;17.15;9.90;;;;;;;25.67;36.71;94568.38;5004507;28;20447;-61
2021/11/01 18:56:39;;;;;;;15.75;10.30;;;;;;;25.70;36.93;94567.31;5004010;28;20038;-61
2021/11/01 18:59:06;;;;;;;15.85;11.07;;;;;;;25.73;37.06;94570.97;4986855;28;20045;-61
2021/11/01 19:01:34;;;;;;;14.98;10.57;;;;;;;25.79;36.81;94574.31;5004634;28;20033;-63
2021/11/01 19:04:00;;;;;;;21.08;10.85;;;;;;;25.83;36.36;94573.44;5003812;28;20053;-61
2021/11/01 19:06:49;;;;;;;15.32;10.05;;;;;;;25.83;36.65;94570.69;4987185;28;20875;-62
2021/11/01 19:09:37;;;;;;;15.00;10.38;;;;;;;25.82;36.79;94569.22;4989991;28;20029;-62
2021/11/01 20:04:35;;;;;;;14.73;10.23;;;;;;;26.10;36.38;94588.41;5000760;28;20200;-60
2021/11/01 20:10:10;;;;;;;15.75;9.93;;;;;;;26.09;36.25;94586.94;4832553;28;20128;-64
2021/11/01 21:27:05;;;;;;;14.68;10.98;;;;;;;24.90;38.04;94541.34;4957050;28;20464;-62
2021/11/01 21:29:34;;;;;;;15.15;10.25;;;;;;;24.81;38.11;94532.88;4969162;28;20027;-62
2021/11/01 21:32:00;;;;;;;14.63;10.73;;;;;;;24.75;38.25;94524.06;4969074;28;20057;-62
2021/11/01 21:34:41;;;;;;;16.17;10.98;;;;;;;24.68;38.05;94524.69;4986759;28;20405;-61
2021/11/01 21:37:07;;;;;;;13.65;10.68;;;;;;;24.57;38.32;94530.41;4986481;28;20037;-61
2021/11/01 21:39:32;;;;;;;14.75;10.65;;;;;;;24.48;38.59;94522.66;4985902;28;20034;-61
2021/11/01 21:41:58;;;;;;;13.63;10.18;;;;;;;24.41;39.14;94523.31;4986150;28;20037;-62
2021/11/01 21:44:24;;;;;;;15.27;10.63;;;;;;;24.34;38.99;94530.13;4968891;28;20030;-62
2021/11/01 21:46:49;;;;;;;14.82;11.10;;;;;;;24.28;39.29;94519.84;4986513;28;20030;-62
2021/11/01 21:49:15;;;;;;;15.38;11.07;;;;;;;24.26;39.16;94522.34;4986028;28;20030;-60
2021/11/01 21:51:42;;;;;;;14.93;11.20;;;;;;;24.17;39.31;94515.34;4986003;28;20064;-61
2021/11/01 21:56:58;;;;;;;15.23;10.85;;;;;;;24.04;39.44;94501.69;4986203;28;20042;-61
2021/11/01 22:18:26;;;;;;;16.85;11.75;;;;;;;23.70;40.18;94477.56;4986242;28;20029;-61
2021/11/01 22:20:58;;;;;;;15.38;11.52;;;;;;;23.65;39.77;94483.88;4986114;28;20432;-61
2021/11/01 22:26:00;;;;;;;14.98;11.57;;;;;;;23.58;40.23;94481.72;4985882;28;20030;-60
2021/11/01 22:41:56;;;;;;;18.42;12.38;;;;;;;23.44;40.48;94466.63;4984460;28;20018;-62
2021/11/01 22:57:40;;;;;;;17.15;11.52;;;;;;;23.24;40.60;94452.88;4984242;28;20057;-60
2021/11/01 23:00:17;;;;;;;16.17;12.25;;;;;;;23.20;40.67;94453.19;4985392;28;20038;-60
2021/11/01 23:02:42;;;;;;;17.23;12.18;;;;;;;23.19;40.92;94451.69;4985209;28;20125;-60
2021/11/01 23:05:32;;;;;;;16.63;12.05;;;;;;;23.17;40.62;94448.03;4984858;28;20450;-60
2021/11/01 23:32:29;;;;;;;16.52;11.93;;;;;;;22.93;41.26;94413.53;4985393;28;20077;-60
2021/11/01 23:34:55;;;;;;;17.00;12.35;;;;;;;22.91;41.23;94410.56;4984644;28;20034;-60
2021/11/01 23:37:20;;;;;;;16.08;12.18;;;;;;;22.88;41.30;94414.34;4984853;28;20038;-60
2021/11/01 23:39:46;;;;;;;16.60;12.07;;;;;;;22.88;40.93;94411.63;4984677;28;20022;-60
2021/11/01 23:42:12;;;;;;;16.70;12.32;;;;;;;22.88;41.03;94410.13;4984602;28;20120;-60
2021/11/01 23:44:37;;;;;;;19.00;12.50;;;;;;;22.85;41.21;94413.91;4983597;28;20030;-60
2021/11/01 23:47:03;;;;;;;16.58;11.88;;;;;;;22.83;41.04;94410.97;4984871;28;20022;-60
2021/11/01 23:49:28;;;;;;;17.80;12.23;;;;;;;22.81;41.46;94410.72;4984671;28;20675;-60
2021/11/01 23:52:09;;;;;;;17.00;12.05;;;;;;;22.83;41.47;94397.34;4986107;28;20076;-60
2021/11/01 23:54:44;;;;;;;16.83;11.68;;;;;;;22.80;41.21;94410.00;4988256;28;20038;-60